Bayswater, United Kingdom
Current Conditions -  °F | °C
As of 2:20 PM on Sunday 23 Nov 2014 (Local Time) from EGLC Reporting Station
Light Rain Light Rain  
Wind Chill: 43°   Ceiling: 1000
Heat Index: 46°   Visibility: 6mi
Dew Point: 45°   Wind: 7mph
Humidity: 93%   Direction: 340°NNW
Pressure: 30.03"   Gusts: NA
Location:  51.51°N, 0.18°W
Report Text: EGLC 231420Z 34006KT 310V020 9999 -RA FEW007 BKN010 08/07 Q1017
Loading
Personal Weather Stations






























Interactive Weather Map New forecast layout! Learn more

10-Day Weather Forecast

Advertisements
Track Severe Weather on mobile